sensor_id;sensor_type;location;lat;lon;timestamp;pressure;altitude;pressure_sealevel;temperature;humidity
818;BME280;391;51.052;6.954;2022-10-31T00:02:03;101521.41;;;15.30;77.72
818;BME280;391;51.052;6.954;2022-10-31T00:04:06;101517.94;;;15.31;77.64
818;BME280;391;51.052;6.954;2022-10-31T00:06:10;101523.16;;;15.29;77.99
818;BME280;391;51.052;6.954;2022-10-31T00:08:13;101521.34;;;15.27;77.82
818;BME280;391;51.052;6.954;2022-10-31T00:10:17;101518.69;;;15.25;77.26
818;BME280;391;51.052;6.954;2022-10-31T00:12:20;101525.69;;;15.25;77.81
818;BME280;391;51.052;6.954;2022-10-31T00:14:25;101518.66;;;15.24;77.25
818;BME280;391;51.052;6.954;2022-10-31T00:16:28;101526.19;;;15.09;77.62
818;BME280;391;51.052;6.954;2022-10-31T00:18:32;101526.50;;;14.85;78.12
818;BME280;391;51.052;6.954;2022-10-31T00:20:36;101527.31;;;14.82;79.04
818;BME280;391;51.052;6.954;2022-10-31T00:22:39;101524.63;;;14.79;79.57
818;BME280;391;51.052;6.954;2022-10-31T00:24:43;101522.97;;;14.84;79.41
818;BME280;391;51.052;6.954;2022-10-31T00:26:46;101529.19;;;14.87;79.21
818;BME280;391;51.052;6.954;2022-10-31T00:28:49;101523.31;;;14.98;79.47
818;BME280;391;51.052;6.954;2022-10-31T00:30:58;101500.44;;;14.93;78.73
818;BME280;391;51.052;6.954;2022-10-31T00:33:03;101516.47;;;15.06;78.99
818;BME280;391;51.052;6.954;2022-10-31T00:35:07;101487.38;;;14.96;78.67
818;BME280;391;51.052;6.954;2022-10-31T00:37:11;101516.59;;;15.11;78.07
818;BME280;391;51.052;6.954;2022-10-31T00:39:14;101501.66;;;15.08;78.52
818;BME280;391;51.052;6.954;2022-10-31T00:41:18;101502.56;;;15.09;77.94
818;BME280;391;51.052;6.954;2022-10-31T00:43:21;101513.00;;;15.07;78.37
818;BME280;391;51.052;6.954;2022-10-31T00:45:25;101521.84;;;15.11;78.08
818;BME280;391;51.052;6.954;2022-10-31T00:47:29;101524.44;;;15.09;77.96
818;BME280;391;51.052;6.954;2022-10-31T00:49:33;101539.41;;;15.12;78.48
818;BME280;391;51.052;6.954;2022-10-31T00:51:38;101535.13;;;15.17;77.89
818;BME280;391;51.052;6.954;2022-10-31T00:53:41;101538.47;;;15.10;77.91
818;BME280;391;51.052;6.954;2022-10-31T00:55:45;101540.38;;;15.17;77.57
818;BME280;391;51.052;6.954;2022-10-31T00:57:49;101543.91;;;15.19;77.97
818;BME280;391;51.052;6.954;2022-10-31T00:59:53;101544.88;;;15.22;78.12
818;BME280;391;51.052;6.954;2022-10-31T01:01:56;101545.00;;;15.27;77.92
818;BME280;391;51.052;6.954;2022-10-31T01:04:01;101551.16;;;15.29;77.72
818;BME280;391;51.052;6.954;2022-10-31T01:06:09;101556.41;;;15.29;77.62
818;BME280;391;51.052;6.954;2022-10-31T01:08:13;101545.91;;;15.29;77.25
818;BME280;391;51.052;6.954;2022-10-31T01:10:18;101541.56;;;15.29;77.68
818;BME280;391;51.052;6.954;2022-10-31T01:12:21;101548.53;;;15.29;77.33
818;BME280;391;51.052;6.954;2022-10-31T01:14:25;101565.09;;;15.25;77.83
818;BME280;391;51.052;6.954;2022-10-31T01:16:31;101528.91;;;15.13;77.67
818;BME280;391;51.052;6.954;2022-10-31T01:18:35;101536.09;;;15.20;77.38
818;BME280;391;51.052;6.954;2022-10-31T01:20:40;101530.50;;;15.05;77.90
818;BME280;391;51.052;6.954;2022-10-31T01:22:44;101539.34;;;15.10;78.11
818;BME280;391;51.052;6.954;2022-10-31T01:24:47;101531.31;;;15.03;78.15
818;BME280;391;51.052;6.954;2022-10-31T01:26:51;101528.75;;;15.06;78.23
818;BME280;391;51.052;6.954;2022-10-31T01:28:56;101526.91;;;15.03;78.25
818;BME280;391;51.052;6.954;2022-10-31T01:31:01;101524.84;;;14.90;78.07
818;BME280;391;51.052;6.954;2022-10-31T01:33:05;101519.38;;;14.79;78.40
818;BME280;391;51.052;6.954;2022-10-31T01:35:09;101519.38;;;14.81;79.09
818;BME280;391;51.052;6.954;2022-10-31T01:37:14;101515.16;;;14.86;79.01
818;BME280;391;51.052;6.954;2022-10-31T01:39:18;101501.19;;;14.89;78.76
818;BME280;391;51.052;6.954;2022-10-31T01:41:24;101505.75;;;14.96;78.37
818;BME280;391;51.052;6.954;2022-10-31T01:43:45;101496.06;;;14.93;78.75
818;BME280;391;51.052;6.954;2022-10-31T01:45:52;101498.78;;;14.96;78.53
818;BME280;391;51.052;6.954;2022-10-31T01:47:57;101491.53;;;14.86;78.23
818;BME280;391;51.052;6.954;2022-10-31T01:50:04;101492.28;;;14.82;78.92
818;BME280;391;51.052;6.954;2022-10-31T01:52:16;101490.50;;;14.79;78.68
818;BME280;391;51.052;6.954;2022-10-31T01:54:23;101485.31;;;14.82;78.89
818;BME280;391;51.052;6.954;2022-10-31T01:56:30;101484.28;;;14.77;78.75
818;BME280;391;51.052;6.954;2022-10-31T01:58:35;101483.25;;;14.71;78.97
818;BME280;391;51.052;6.954;2022-10-31T02:00:38;101486.75;;;14.70;79.35
818;BME280;391;51.052;6.954;2022-10-31T02:02:44;101497.28;;;14.71;79.05
818;BME280;391;51.052;6.954;2022-10-31T02:04:48;101492.91;;;14.70;79.19
818;BME280;391;51.052;6.954;2022-10-31T02:06:55;101490.50;;;14.81;79.09
818;BME280;391;51.052;6.954;2022-10-31T02:09:04;101491.25;;;14.75;78.17
818;BME280;391;51.052;6.954;2022-10-31T02:11:08;101486.69;;;14.68;78.70
818;BME280;391;51.052;6.954;2022-10-31T02:13:12;101473.72;;;14.74;79.07
818;BME280;391;51.052;6.954;2022-10-31T02:15:23;101479.03;;;14.77;78.52
818;BME280;391;51.052;6.954;2022-10-31T02:17:29;101489.63;;;14.80;78.92
818;BME280;391;51.052;6.954;2022-10-31T02:19:39;101487.78;;;14.76;78.30
818;BME280;391;51.052;6.954;2022-10-31T02:21:49;101493.03;;;14.76;78.76
818;BME280;391;51.052;6.954;2022-10-31T02:24:17;101500.09;;;14.79;78.41
818;BME280;391;51.052;6.954;2022-10-31T02:29:15;101494.69;;;14.73;79.07
818;BME280;391;51.052;6.954;2022-10-31T02:31:33;101504.38;;;14.75;79.07
818;BME280;391;51.052;6.954;2022-10-31T02:33:42;101506.88;;;14.69;78.47
818;BME280;391;51.052;6.954;2022-10-31T02:35:55;101505.13;;;14.70;79.06
818;BME280;391;51.052;6.954;2022-10-31T02:38:07;101508.66;;;14.70;78.97
818;BME280;391;51.052;6.954;2022-10-31T02:40:17;101513.03;;;14.71;79.04
818;BME280;391;51.052;6.954;2022-10-31T02:43:02;101510.47;;;14.73;79.03
818;BME280;391;51.052;6.954;2022-10-31T02:45:13;101505.16;;;14.71;78.73
818;BME280;391;51.052;6.954;2022-10-31T02:47:23;101506.13;;;14.75;79.01
818;BME280;391;51.052;6.954;2022-10-31T02:49:32;101498.94;;;14.68;78.32
818;BME280;391;51.052;6.954;2022-10-31T02:51:38;101503.06;;;14.58;79.22
818;BME280;391;51.052;6.954;2022-10-31T02:53:42;101504.84;;;14.59;79.42
818;BME280;391;51.052;6.954;2022-10-31T02:55:57;101512.50;;;14.50;78.87
818;BME280;391;51.052;6.954;2022-10-31T02:58:05;101512.69;;;14.25;79.84
818;BME280;391;51.052;6.954;2022-10-31T03:00:11;101515.31;;;14.25;80.54
818;BME280;391;51.052;6.954;2022-10-31T03:02:24;101510.91;;;14.24;80.39
818;BME280;391;51.052;6.954;2022-10-31T03:04:47;101509.09;;;14.21;80.30
818;BME280;391;51.052;6.954;2022-10-31T03:07:00;101501.09;;;14.17;80.59
818;BME280;391;51.052;6.954;2022-10-31T03:09:11;101505.59;;;14.21;80.53
818;BME280;391;51.052;6.954;2022-10-31T03:11:23;101504.50;;;14.13;80.13
818;BME280;391;51.052;6.954;2022-10-31T03:13:32;101501.72;;;14.07;80.89
818;BME280;391;51.052;6.954;2022-10-31T03:15:39;101499.88;;;14.04;80.94
818;BME280;391;51.052;6.954;2022-10-31T03:17:52;101516.72;;;14.12;81.26
818;BME280;391;51.052;6.954;2022-10-31T03:20:00;101511.59;;;14.17;80.81
818;BME280;391;51.052;6.954;2022-10-31T03:22:12;101508.03;;;14.15;80.58
818;BME280;391;51.052;6.954;2022-10-31T03:24:20;101507.91;;;14.10;80.34
818;BME280;391;51.052;6.954;2022-10-31T03:26:25;101513.03;;;14.06;80.78
818;BME280;391;51.052;6.954;2022-10-31T03:28:31;101515.53;;;14.01;80.98
818;BME280;391;51.052;6.954;2022-10-31T03:30:41;101517.25;;;14.01;80.75
818;BME280;391;51.052;6.954;2022-10-31T03:32:49;101516.34;;;13.99;80.89
818;BME280;391;51.052;6.954;2022-10-31T03:34:59;101515.38;;;13.95;81.37
818;BME280;391;51.052;6.954;2022-10-31T03:37:06;101511.91;;;13.96;81.37
818;BME280;391;51.052;6.954;2022-10-31T03:39:13;101521.91;;;13.79;81.36
818;BME280;391;51.052;6.954;2022-10-31T03:41:21;101519.97;;;13.72;82.25
818;BME280;391;51.052;6.954;2022-10-31T03:43:30;101512.28;;;13.78;82.40
818;BME280;391;51.052;6.954;2022-10-31T03:45:41;101502.66;;;13.77;82.45
818;BME280;391;51.052;6.954;2022-10-31T03:47:48;101489.50;;;13.76;82.41
818;BME280;391;51.052;6.954;2022-10-31T03:49:52;101500.44;;;13.93;82.51
818;BME280;391;51.052;6.954;2022-10-31T03:51:59;101503.38;;;14.03;82.56
818;BME280;391;51.052;6.954;2022-10-31T03:54:09;101501.44;;;13.98;81.56
818;BME280;391;51.052;6.954;2022-10-31T03:56:23;101501.75;;;13.77;81.99
818;BME280;391;51.052;6.954;2022-10-31T03:58:33;101499.22;;;13.50;82.99
818;BME280;391;51.052;6.954;2022-10-31T04:00:43;101503.69;;;13.53;84.11
818;BME280;391;51.052;6.954;2022-10-31T04:02:51;101485.06;;;13.44;84.14
818;BME280;391;51.052;6.954;2022-10-31T04:04:58;101495.41;;;13.39;84.15
818;BME280;391;51.052;6.954;2022-10-31T04:07:06;101486.25;;;13.25;85.10
818;BME280;391;51.052;6.954;2022-10-31T04:09:12;101501.22;;;13.29;85.47
818;BME280;391;51.052;6.954;2022-10-31T04:11:18;101483.78;;;13.30;85.54
818;BME280;391;51.052;6.954;2022-10-31T04:13:44;101494.69;;;13.43;85.57
818;BME280;391;51.052;6.954;2022-10-31T04:16:01;101501.84;;;13.50;84.76
818;BME280;391;51.052;6.954;2022-10-31T04:18:08;101512.16;;;13.44;84.44
818;BME280;391;51.052;6.954;2022-10-31T04:20:18;101508.53;;;13.39;84.86
818;BME280;391;51.052;6.954;2022-10-31T04:22:26;101503.94;;;13.32;84.79
818;BME280;391;51.052;6.954;2022-10-31T04:24:35;101489.53;;;13.18;84.99
818;BME280;391;51.052;6.954;2022-10-31T04:26:45;101509.00;;;13.26;85.29
818;BME280;391;51.052;6.954;2022-10-31T04:28:49;101506.66;;;13.35;85.42
818;BME280;391;51.052;6.954;2022-10-31T04:30:53;101472.41;;;13.29;84.98
818;BME280;391;51.052;6.954;2022-10-31T04:33:00;101494.19;;;13.28;84.81
818;BME280;391;51.052;6.954;2022-10-31T04:35:11;101479.03;;;13.16;85.03
818;BME280;391;51.052;6.954;2022-10-31T04:37:22;101493.38;;;13.02;85.69
818;BME280;391;51.052;6.954;2022-10-31T04:39:30;101479.97;;;12.92;86.45
818;BME280;391;51.052;6.954;2022-10-31T04:41:57;101484.53;;;12.99;86.54
818;BME280;391;51.052;6.954;2022-10-31T04:44:05;101485.69;;;13.07;86.62
818;BME280;391;51.052;6.954;2022-10-31T04:46:09;101489.63;;;13.21;86.83
818;BME280;391;51.052;6.954;2022-10-31T04:48:20;101487.31;;;13.30;85.98
818;BME280;391;51.052;6.954;2022-10-31T04:50:30;101478.75;;;13.37;85.68
818;BME280;391;51.052;6.954;2022-10-31T04:52:40;101479.25;;;13.24;84.79
818;BME280;391;51.052;6.954;2022-10-31T04:54:48;101372.94;;;12.44;85.44
818;BME280;391;51.052;6.954;2022-10-31T04:57:24;101472.34;;;12.99;86.58
818;BME280;391;51.052;6.954;2022-10-31T04:59:35;101476.69;;;12.99;86.63
818;BME280;391;51.052;6.954;2022-10-31T05:01:39;101470.28;;;13.16;87.04
818;BME280;391;51.052;6.954;2022-10-31T05:03:44;101470.38;;;13.19;86.45
818;BME280;391;51.052;6.954;2022-10-31T05:05:54;101465.13;;;13.19;86.07
818;BME280;391;51.052;6.954;2022-10-31T05:07:58;101469.78;;;13.29;86.65
818;BME280;391;51.052;6.954;2022-10-31T05:10:14;101463.75;;;13.32;86.11
818;BME280;391;51.052;6.954;2022-10-31T05:12:22;101461.19;;;13.33;85.63
818;BME280;391;51.052;6.954;2022-10-31T05:15:01;101445.56;;;13.36;86.08
818;BME280;391;51.052;6.954;2022-10-31T05:17:43;101453.38;;;13.35;85.46
818;BME280;391;51.052;6.954;2022-10-31T05:20:17;101448.34;;;13.42;85.39
818;BME280;391;51.052;6.954;2022-10-31T05:22:49;101444.69;;;13.36;85.35
818;BME280;391;51.052;6.954;2022-10-31T05:24:59;101450.47;;;13.55;85.30
818;BME280;391;51.052;6.954;2022-10-31T05:27:05;101457.69;;;13.62;84.60
818;BME280;391;51.052;6.954;2022-10-31T05:29:09;101458.59;;;13.64;84.72
818;BME280;391;51.052;6.954;2022-10-31T05:31:14;101464.72;;;13.65;84.49
818;BME280;391;51.052;6.954;2022-10-31T05:33:18;101457.94;;;13.73;84.46
818;BME280;391;51.052;6.954;2022-10-31T05:35:40;101453.75;;;13.78;84.11
818;BME280;391;51.052;6.954;2022-10-31T05:38:20;101459.94;;;13.82;83.50
818;BME280;391;51.052;6.954;2022-10-31T05:40:25;101392.53;;;13.45;83.42
818;BME280;391;51.052;6.954;2022-10-31T05:42:29;101453.00;;;13.84;83.71
818;BME280;391;51.052;6.954;2022-10-31T05:44:33;101456.47;;;13.83;83.36
818;BME280;391;51.052;6.954;2022-10-31T05:47:10;101453.03;;;13.85;83.53
818;BME280;391;51.052;6.954;2022-10-31T05:49:31;101455.75;;;13.88;83.04
818;BME280;391;51.052;6.954;2022-10-31T05:51:53;101447.03;;;13.89;82.78
818;BME280;391;51.052;6.954;2022-10-31T05:54:06;101450.41;;;13.84;82.09
818;BME280;391;51.052;6.954;2022-10-31T05:56:18;101439.81;;;13.81;82.85
818;BME280;391;51.052;6.954;2022-10-31T05:58:23;101445.34;;;13.91;82.58
818;BME280;391;51.052;6.954;2022-10-31T06:00:39;101448.59;;;13.81;82.13
818;BME280;391;51.052;6.954;2022-10-31T06:02:44;101458.25;;;13.84;82.60
818;BME280;391;51.052;6.954;2022-10-31T06:04:56;101459.94;;;13.82;82.54
818;BME280;391;51.052;6.954;2022-10-31T06:07:01;101451.38;;;13.87;82.46
818;BME280;391;51.052;6.954;2022-10-31T06:09:07;101452.19;;;13.85;82.16
818;BME280;391;51.052;6.954;2022-10-31T06:11:11;101432.69;;;13.75;82.15
818;BME280;391;51.052;6.954;2022-10-31T06:13:35;101450.19;;;13.76;82.38
818;BME280;391;51.052;6.954;2022-10-31T06:15:48;101448.66;;;13.84;82.68
818;BME280;391;51.052;6.954;2022-10-31T06:17:58;101441.72;;;13.86;82.41
818;BME280;391;51.052;6.954;2022-10-31T06:20:05;101446.97;;;13.86;82.14
818;BME280;391;51.052;6.954;2022-10-31T06:22:16;101440.06;;;13.90;82.19
818;BME280;391;51.052;6.954;2022-10-31T06:24:21;101445.09;;;13.82;81.64
818;BME280;391;51.052;6.954;2022-10-31T06:26:38;101436.44;;;13.53;82.39
818;BME280;391;51.052;6.954;2022-10-31T06:28:42;101445.91;;;13.48;83.34
818;BME280;391;51.052;6.954;2022-10-31T06:31:05;101446.97;;;13.55;83.29
818;BME280;391;51.052;6.954;2022-10-31T06:33:11;101461.13;;;13.61;83.55
818;BME280;391;51.052;6.954;2022-10-31T06:35:20;101463.00;;;13.65;83.52
818;BME280;391;51.052;6.954;2022-10-31T06:37:26;101460.38;;;13.65;83.57
818;BME280;391;51.052;6.954;2022-10-31T06:39:37;101455.31;;;13.71;82.90
818;BME280;391;51.052;6.954;2022-10-31T06:41:43;101462.28;;;13.71;82.89
818;BME280;391;51.052;6.954;2022-10-31T06:43:48;101458.00;;;13.74;82.95
818;BME280;391;51.052;6.954;2022-10-31T06:46:21;101450.00;;;13.70;83.16
818;BME280;391;51.052;6.954;2022-10-31T06:48:40;101429.53;;;13.55;82.42
818;BME280;391;51.052;6.954;2022-10-31T06:51:02;101457.03;;;13.71;82.78
818;BME280;391;51.052;6.954;2022-10-31T06:53:09;101459.66;;;13.71;82.70
818;BME280;391;51.052;6.954;2022-10-31T06:55:15;101453.59;;;13.73;82.84
818;BME280;391;51.052;6.954;2022-10-31T06:57:18;101453.78;;;13.79;82.47
818;BME280;391;51.052;6.954;2022-10-31T06:59:22;101453.91;;;13.84;82.61
818;BME280;391;51.052;6.954;2022-10-31T07:01:45;101453.59;;;13.73;81.77
818;BME280;391;51.052;6.954;2022-10-31T07:03:49;101455.75;;;13.57;82.57
818;BME280;391;51.052;6.954;2022-10-31T07:05:54;101448.34;;;13.42;83.24
818;BME280;391;51.052;6.954;2022-10-31T07:07:59;101457.13;;;13.43;83.49
818;BME280;391;51.052;6.954;2022-10-31T07:10:04;101460.41;;;13.37;83.29
818;BME280;391;51.052;6.954;2022-10-31T07:12:21;101451.63;;;13.35;84.13
818;BME280;391;51.052;6.954;2022-10-31T07:14:32;101454.31;;;13.37;83.71
818;BME280;391;51.052;6.954;2022-10-31T07:16:36;101461.31;;;13.38;83.85
818;BME280;391;51.052;6.954;2022-10-31T07:18:41;101455.31;;;13.42;84.11
818;BME280;391;51.052;6.954;2022-10-31T07:20:47;101451.22;;;13.51;84.12
818;BME280;391;51.052;6.954;2022-10-31T07:22:52;101456.66;;;13.57;83.52
818;BME280;391;51.052;6.954;2022-10-31T07:24:59;101472.34;;;13.56;84.06
818;BME280;391;51.052;6.954;2022-10-31T07:27:27;101464.66;;;13.62;83.81
818;BME280;391;51.052;6.954;2022-10-31T07:29:31;101469.19;;;13.69;83.41
818;BME280;391;51.052;6.954;2022-10-31T07:31:35;101471.13;;;13.76;83.19
818;BME280;391;51.052;6.954;2022-10-31T07:33:45;101478.19;;;13.78;83.54
818;BME280;391;51.052;6.954;2022-10-31T07:36:01;101475.66;;;13.82;83.24
818;BME280;391;51.052;6.954;2022-10-31T07:38:25;101464.41;;;13.86;83.09
818;BME280;391;51.052;6.954;2022-10-31T07:40:28;101476.72;;;13.88;83.36
818;BME280;391;51.052;6.954;2022-10-31T07:42:36;101475.31;;;14.01;83.26
818;BME280;391;51.052;6.954;2022-10-31T07:44:41;101484.94;;;14.00;82.79
818;BME280;391;51.052;6.954;2022-10-31T07:47:22;101481.75;;;14.12;83.06
818;BME280;391;51.052;6.954;2022-10-31T07:50:18;101483.44;;;14.10;82.24
818;BME280;391;51.052;6.954;2022-10-31T07:52:40;101478.00;;;14.02;85.27
818;BME280;391;51.052;6.954;2022-10-31T07:55:04;101463.69;;;14.58;87.98
818;BME280;391;51.052;6.954;2022-10-31T07:57:10;101468.41;;;15.09;88.79
818;BME280;391;51.052;6.954;2022-10-31T07:59:15;101464.59;;;15.35;87.96
818;BME280;391;51.052;6.954;2022-10-31T08:01:18;101465.09;;;15.56;87.33
818;BME280;391;51.052;6.954;2022-10-31T08:03:39;101470.72;;;15.34;81.75
818;BME280;391;51.052;6.954;2022-10-31T08:05:46;101468.88;;;14.91;81.59
818;BME280;391;51.052;6.954;2022-10-31T08:08:09;101459.81;;;14.77;82.13
818;BME280;391;51.052;6.954;2022-10-31T08:10:13;101472.88;;;14.75;82.22
818;BME280;391;51.052;6.954;2022-10-31T08:12:17;101473.56;;;14.67;82.64
818;BME280;391;51.052;6.954;2022-10-31T08:14:23;101479.03;;;14.76;82.75
818;BME280;391;51.052;6.954;2022-10-31T08:16:27;101473.69;;;14.73;82.37
818;BME280;391;51.052;6.954;2022-10-31T08:18:35;101473.84;;;14.79;82.34
818;BME280;391;51.052;6.954;2022-10-31T08:20:42;101465.06;;;14.78;82.26
818;BME280;391;51.052;6.954;2022-10-31T08:22:54;101470.44;;;14.83;82.07
818;BME280;391;51.052;6.954;2022-10-31T08:24:58;101470.47;;;14.84;82.36
818;BME280;391;51.052;6.954;2022-10-31T08:27:03;101465.28;;;14.88;82.16
818;BME280;391;51.052;6.954;2022-10-31T08:29:27;101467.97;;;14.89;82.01
818;BME280;391;51.052;6.954;2022-10-31T08:31:49;101473.03;;;14.81;81.60
818;BME280;391;51.052;6.954;2022-10-31T08:34:36;101468.44;;;14.73;82.12
818;BME280;391;51.052;6.954;2022-10-31T08:37:35;101462.16;;;14.66;81.92
818;BME280;391;51.052;6.954;2022-10-31T08:39:59;101467.50;;;14.69;82.25
818;BME280;391;51.052;6.954;2022-10-31T08:42:08;101456.91;;;14.66;82.30
818;BME280;391;51.052;6.954;2022-10-31T08:44:13;101455.03;;;14.61;82.41
818;BME280;391;51.052;6.954;2022-10-31T08:46:19;101448.72;;;14.53;82.21
818;BME280;391;51.052;6.954;2022-10-31T08:48:23;101446.75;;;14.44;83.01
818;BME280;391;51.052;6.954;2022-10-31T08:50:27;101446.63;;;14.40;83.01
818;BME280;391;51.052;6.954;2022-10-31T08:52:31;101449.41;;;14.46;83.50
818;BME280;391;51.052;6.954;2022-10-31T08:54:55;101440.97;;;14.59;83.70
818;BME280;391;51.052;6.954;2022-10-31T08:57:21;101438.13;;;14.50;83.26
818;BME280;391;51.052;6.954;2022-10-31T08:59:24;101441.50;;;14.44;83.21
818;BME280;391;51.052;6.954;2022-10-31T09:01:49;101435.38;;;14.44;83.49
818;BME280;391;51.052;6.954;2022-10-31T09:03:53;101443.28;;;14.45;83.43
818;BME280;391;51.052;6.954;2022-10-31T09:05:59;101436.06;;;14.37;83.27
818;BME280;391;51.052;6.954;2022-10-31T09:08:05;101438.69;;;14.37;83.79
818;BME280;391;51.052;6.954;2022-10-31T09:10:18;101440.59;;;14.42;84.16
818;BME280;391;51.052;6.954;2022-10-31T09:12:21;101429.06;;;14.36;83.81
818;BME280;391;51.052;6.954;2022-10-31T09:14:46;101431.84;;;14.43;83.74
818;BME280;391;51.052;6.954;2022-10-31T09:17:01;101427.75;;;14.54;84.28
818;BME280;391;51.052;6.954;2022-10-31T09:19:22;101424.47;;;14.63;83.47
818;BME280;391;51.052;6.954;2022-10-31T09:21:26;101427.28;;;14.70;83.08
818;BME280;391;51.052;6.954;2022-10-31T09:23:33;101437.78;;;14.70;83.43
818;BME280;391;51.052;6.954;2022-10-31T09:25:37;101426.41;;;14.71;83.05
818;BME280;391;51.052;6.954;2022-10-31T09:28:06;101368.22;;;14.52;82.48
818;BME280;391;51.052;6.954;2022-10-31T09:30:10;101418.09;;;14.91;83.12
818;BME280;391;51.052;6.954;2022-10-31T09:32:15;101414.63;;;14.92;82.35
818;BME280;391;51.052;6.954;2022-10-31T09:34:20;101410.56;;;15.06;82.97
818;BME280;391;51.052;6.954;2022-10-31T09:36:36;101409.00;;;15.15;81.63
818;BME280;391;51.052;6.954;2022-10-31T09:38:49;101403.84;;;15.20;81.30
818;BME280;391;51.052;6.954;2022-10-31T09:40:55;101402.22;;;15.25;81.02
818;BME280;391;51.052;6.954;2022-10-31T09:43:13;101391.00;;;15.33;80.88
818;BME280;391;51.052;6.954;2022-10-31T09:45:21;101391.00;;;15.33;80.57
818;BME280;391;51.052;6.954;2022-10-31T09:47:38;101406.63;;;15.27;80.66
818;BME280;391;51.052;6.954;2022-10-31T09:50:13;101403.19;;;15.30;80.59
818;BME280;391;51.052;6.954;2022-10-31T09:52:21;101396.38;;;15.40;80.49
818;BME280;391;51.052;6.954;2022-10-31T09:54:31;101391.38;;;15.52;80.22
818;BME280;391;51.052;6.954;2022-10-31T09:56:36;101386.22;;;15.58;80.22
818;BME280;391;51.052;6.954;2022-10-31T09:58:44;101373.13;;;15.59;79.97
818;BME280;391;51.052;6.954;2022-10-31T10:00:48;101377.03;;;15.81;80.17
818;BME280;391;51.052;6.954;2022-10-31T10:02:56;101369.50;;;16.01;79.24
818;BME280;391;51.052;6.954;2022-10-31T10:05:05;101366.06;;;16.06;79.41
818;BME280;391;51.052;6.954;2022-10-31T10:07:19;101361.25;;;16.33;78.12
818;BME280;391;51.052;6.954;2022-10-31T10:09:44;101368.81;;;16.69;77.10
818;BME280;391;51.052;6.954;2022-10-31T10:12:14;101362.16;;;16.94;76.91
818;BME280;391;51.052;6.954;2022-10-31T10:14:33;101348.09;;;16.93;75.71
818;BME280;391;51.052;6.954;2022-10-31T10:16:57;101357.31;;;17.30;75.10
818;BME280;391;51.052;6.954;2022-10-31T10:19:16;101351.13;;;17.25;73.83
818;BME280;391;51.052;6.954;2022-10-31T10:21:32;101352.16;;;17.38;74.19
818;BME280;391;51.052;6.954;2022-10-31T10:23:48;101351.34;;;17.45;73.95
818;BME280;391;51.052;6.954;2022-10-31T10:26:06;101350.81;;;17.78;73.23
818;BME280;391;51.052;6.954;2022-10-31T10:28:18;101350.84;;;17.81;71.91
818;BME280;391;51.052;6.954;2022-10-31T10:30:28;101349.28;;;18.00;71.57
818;BME280;391;51.052;6.954;2022-10-31T10:32:41;101338.09;;;18.35;71.46
818;BME280;391;51.052;6.954;2022-10-31T10:34:58;101340.91;;;18.58;69.66
818;BME280;391;51.052;6.954;2022-10-31T10:37:05;101329.34;;;18.41;69.92
818;BME280;391;51.052;6.954;2022-10-31T10:39:17;101327.41;;;18.17;69.66
818;BME280;391;51.052;6.954;2022-10-31T10:41:24;101308.75;;;17.93;70.12
818;BME280;391;51.052;6.954;2022-10-31T10:43:36;101305.19;;;17.86;70.66
818;BME280;391;51.052;6.954;2022-10-31T10:45:39;101299.97;;;17.95;70.76
818;BME280;391;51.052;6.954;2022-10-31T10:48:07;101286.78;;;18.00;71.25
818;BME280;391;51.052;6.954;2022-10-31T10:50:18;101293.03;;;18.08;70.38
818;BME280;391;51.052;6.954;2022-10-31T10:52:29;101303.53;;;17.99;70.95
818;BME280;391;51.052;6.954;2022-10-31T10:54:59;101307.09;;;18.06;70.29
818;BME280;391;51.052;6.954;2022-10-31T10:57:14;101296.56;;;18.10;70.57
818;BME280;391;51.052;6.954;2022-10-31T10:59:21;101291.44;;;18.31;70.22
818;BME280;391;51.052;6.954;2022-10-31T11:01:25;101292.41;;;18.47;69.52
818;BME280;391;51.052;6.954;2022-10-31T11:03:28;101287.19;;;18.56;68.75
818;BME280;391;51.052;6.954;2022-10-31T11:05:38;101266.13;;;18.74;68.80
818;BME280;391;51.052;6.954;2022-10-31T11:07:42;101260.03;;;18.90;67.10
818;BME280;391;51.052;6.954;2022-10-31T11:09:46;101267.97;;;18.90;66.85
818;BME280;391;51.052;6.954;2022-10-31T11:11:49;101268.78;;;18.74;66.75
818;BME280;391;51.052;6.954;2022-10-31T11:13:57;101267.91;;;18.69;67.20
818;BME280;391;51.052;6.954;2022-10-31T11:16:04;101277.50;;;18.58;67.36
818;BME280;391;51.052;6.954;2022-10-31T11:18:19;101279.28;;;18.59;67.33
818;BME280;391;51.052;6.954;2022-10-31T11:20:27;101280.19;;;18.64;66.84
818;BME280;391;51.052;6.954;2022-10-31T11:22:34;101281.06;;;18.62;67.08
818;BME280;391;51.052;6.954;2022-10-31T11:24:39;101286.38;;;18.63;67.17
818;BME280;391;51.052;6.954;2022-10-31T11:26:44;101275.84;;;18.80;66.64
818;BME280;391;51.052;6.954;2022-10-31T11:28:56;101269.69;;;18.84;65.67
818;BME280;391;51.052;6.954;2022-10-31T11:31:05;101260.03;;;18.93;65.87
818;BME280;391;51.052;6.954;2022-10-31T11:33:16;101249.53;;;19.22;65.57
818;BME280;391;51.052;6.954;2022-10-31T11:35:22;101248.69;;;19.38;64.22
818;BME280;391;51.052;6.954;2022-10-31T11:37:28;101253.09;;;19.36;63.14
818;BME280;391;51.052;6.954;2022-10-31T11:39:40;101261.06;;;19.47;63.32
818;BME280;391;51.052;6.954;2022-10-31T11:41:45;101253.09;;;19.35;63.23
818;BME280;391;51.052;6.954;2022-10-31T11:43:51;101243.38;;;19.37;63.37
818;BME280;391;51.052;6.954;2022-10-31T11:45:56;101231.06;;;19.27;62.64
818;BME280;391;51.052;6.954;2022-10-31T11:48:00;101231.91;;;19.23;62.87
818;BME280;391;51.052;6.954;2022-10-31T11:50:10;101237.22;;;19.30;63.19
818;BME280;391;51.052;6.954;2022-10-31T11:52:17;101224.03;;;19.45;63.10
818;BME280;391;51.052;6.954;2022-10-31T11:54:25;101231.09;;;19.56;62.18
818;BME280;391;51.052;6.954;2022-10-31T11:56:41;101220.53;;;19.56;62.14
818;BME280;391;51.052;6.954;2022-10-31T11:58:55;101216.97;;;19.60;61.61
818;BME280;391;51.052;6.954;2022-10-31T12:00:58;101187.91;;;19.49;62.05
818;BME280;391;51.052;6.954;2022-10-31T12:03:11;101208.16;;;19.58;61.66